createdAt,value
2017-09-02T00:00:18.789Z,957.18
2017-09-02T00:01:18.810Z,957.17
2017-09-02T00:02:18.832Z,957.18
2017-09-02T00:03:18.859Z,957.15
2017-09-02T00:04:18.875Z,957.13
2017-09-02T00:05:18.896Z,957.13
2017-09-02T00:06:18.969Z,957.16
2017-09-02T00:07:18.940Z,957.16
2017-09-02T00:08:18.960Z,957.13
2017-09-02T00:09:18.982Z,957.16
2017-09-02T00:10:19.005Z,957.16
2017-09-02T00:11:19.031Z,957.16
2017-09-02T00:12:19.050Z,957.14
2017-09-02T00:13:19.073Z,957.16
2017-09-02T00:14:19.092Z,957.14
2017-09-02T00:15:19.114Z,957.1
2017-09-02T00:16:19.141Z,957.1
2017-09-02T00:17:19.156Z,957.12
2017-09-02T00:18:19.182Z,957.12
2017-09-02T00:19:19.205Z,957.12
2017-09-02T00:20:19.227Z,957.11
2017-09-02T00:21:19.247Z,957.08
2017-09-02T00:22:19.265Z,957.11
2017-09-02T00:23:19.291Z,957.09
2017-09-02T00:24:19.311Z,957.14
2017-09-02T00:25:19.334Z,957.08
2017-09-02T00:26:19.354Z,957.13
2017-09-02T00:27:19.380Z,957.13
2017-09-02T00:28:19.400Z,957.11
2017-09-02T00:29:19.423Z,957.1
2017-09-02T00:30:19.447Z,957.08
2017-09-02T00:31:19.470Z,957.1
2017-09-02T00:32:19.489Z,957.08
2017-09-02T00:33:19.510Z,957.12
2017-09-02T00:34:19.532Z,957.11
2017-09-02T00:35:19.554Z,957.11
2017-09-02T00:36:19.575Z,957.12
2017-09-02T00:37:19.620Z,957.07
2017-09-02T00:38:19.621Z,957.09
2017-09-02T00:39:19.645Z,957.06
2017-09-02T00:40:19.666Z,957.08
2017-09-02T00:41:19.686Z,957.06
2017-09-02T00:42:19.708Z,957.05
2017-09-02T00:43:19.730Z,957.06
2017-09-02T00:44:19.752Z,957.06
2017-09-02T00:45:19.772Z,957.07
2017-09-02T00:46:19.795Z,957.02
2017-09-02T00:47:19.816Z,957.07
2017-09-02T00:48:19.840Z,957.04
2017-09-02T00:49:19.865Z,957.05
2017-09-02T00:50:19.882Z,957.05
2017-09-02T00:51:19.905Z,957.07
2017-09-02T00:52:19.931Z,957.05
2017-09-02T00:53:19.953Z,957.09
2017-09-02T00:54:19.970Z,957.07
2017-09-02T00:55:19.991Z,957.07
2017-09-02T00:56:20.018Z,957.1
2017-09-02T00:57:20.037Z,957.1
2017-09-02T00:58:20.056Z,957.13
2017-09-02T00:59:20.076Z,957.11
2017-09-02T01:00:20.099Z,957.09
2017-09-02T01:01:20.127Z,957.11
2017-09-02T01:02:20.142Z,957.12
2017-09-02T01:03:20.164Z,957.13
2017-09-02T01:04:20.186Z,957.14
2017-09-02T01:05:20.214Z,957.14
2017-09-02T01:06:20.227Z,957.17
2017-09-02T01:07:20.274Z,957.14
2017-09-02T01:08:20.271Z,957.16
2017-09-02T01:09:20.292Z,957.14
2017-09-02T01:10:20.315Z,957.12
2017-09-02T01:11:20.337Z,957.14
2017-09-02T01:12:20.358Z,957.08
2017-09-02T01:13:20.382Z,957.06
2017-09-02T01:14:20.402Z,957.07
2017-09-02T01:15:20.422Z,957.05
2017-09-02T01:16:20.450Z,957.01
2017-09-02T01:17:20.487Z,957.01
2017-09-02T01:18:20.486Z,956.99
2017-09-02T01:19:20.515Z,957
2017-09-02T01:20:20.531Z,956.99
2017-09-02T01:21:20.553Z,956.96
2017-09-02T01:22:20.573Z,956.91
2017-09-02T01:23:20.601Z,956.92
2017-09-02T01:24:20.613Z,956.92
2017-09-02T01:25:20.636Z,956.85
2017-09-02T01:26:20.657Z,956.86
2017-09-02T01:27:20.680Z,956.89
2017-09-02T01:28:20.701Z,956.87
2017-09-02T01:29:20.723Z,956.84
2017-09-02T01:30:20.748Z,956.82
2017-09-02T01:31:20.763Z,956.79
2017-09-02T01:32:20.786Z,956.77
2017-09-02T01:33:20.817Z,956.74
2017-09-02T01:34:20.827Z,956.71
2017-09-02T01:35:20.851Z,956.68
2017-09-02T01:36:20.873Z,956.69
2017-09-02T01:37:20.892Z,956.69
2017-09-02T01:38:20.915Z,956.72
2017-09-02T01:39:20.936Z,956.75
2017-09-02T01:40:20.957Z,956.73
2017-09-02T01:41:20.975Z,956.74
2017-09-02T01:42:20.997Z,956.75
2017-09-02T01:43:21.020Z,956.7
2017-09-02T01:44:21.039Z,956.73
2017-09-02T01:45:21.066Z,956.67
2017-09-02T01:46:21.080Z,956.66
2017-09-02T01:47:21.101Z,956.7
2017-09-02T01:48:21.122Z,956.66
2017-09-02T01:49:21.143Z,956.66
2017-09-02T01:50:21.170Z,956.74
2017-09-02T01:51:21.210Z,956.71
2017-09-02T01:52:21.218Z,956.7
2017-09-02T01:53:21.232Z,956.68
2017-09-02T01:54:21.253Z,956.68
2017-09-02T01:55:21.275Z,956.67
2017-09-02T01:56:21.303Z,956.68
2017-09-02T01:57:21.313Z,956.72
2017-09-02T01:58:21.334Z,956.69
2017-09-02T01:59:21.359Z,956.73
2017-09-02T02:00:21.376Z,956.68
2017-09-02T02:01:21.414Z,956.73
2017-09-02T02:02:21.428Z,956.73
2017-09-02T02:03:21.442Z,956.75
2017-09-02T02:04:21.464Z,956.77
2017-09-02T02:05:21.486Z,956.76
2017-09-02T02:06:21.507Z,956.72
2017-09-02T02:07:21.530Z,956.82
2017-09-02T02:08:21.548Z,956.78
2017-09-02T02:09:21.568Z,956.79
2017-09-02T02:10:21.596Z,956.8
2017-09-02T02:11:21.612Z,956.82
2017-09-02T02:12:21.636Z,956.81
2017-09-02T02:13:21.654Z,956.79
2017-09-02T02:14:21.724Z,956.82
2017-09-02T02:15:21.702Z,956.78
2017-09-02T02:16:21.717Z,956.79
2017-09-02T02:17:21.738Z,956.79
2017-09-02T02:18:21.764Z,956.82
2017-09-02T02:19:21.786Z,956.75
2017-09-02T02:20:21.800Z,956.76
2017-09-02T02:21:21.827Z,956.77
2017-09-02T02:22:21.854Z,956.77
2017-09-02T02:23:21.867Z,956.8
2017-09-02T02:24:21.885Z,956.81
2017-09-02T02:25:21.912Z,956.78
2017-09-02T02:26:21.929Z,956.77
2017-09-02T02:27:21.952Z,956.78
2017-09-02T02:28:21.973Z,956.78
2017-09-02T02:29:21.992Z,956.76
2017-09-02T02:30:22.013Z,956.72
2017-09-02T02:31:22.036Z,956.72
2017-09-02T02:32:22.063Z,956.71
2017-09-02T02:33:22.075Z,956.66
2017-09-02T02:34:22.099Z,956.69
2017-09-02T02:35:22.118Z,956.68
2017-09-02T02:36:22.139Z,956.67
2017-09-02T02:37:22.163Z,956.69
2017-09-02T02:38:22.180Z,956.66
2017-09-02T02:39:22.204Z,956.59
2017-09-02T02:40:22.222Z,956.65
2017-09-02T02:41:22.255Z,956.65
2017-09-02T02:42:22.266Z,956.61
2017-09-02T02:43:22.286Z,956.67
2017-09-02T02:44:22.306Z,956.63
2017-09-02T02:45:22.327Z,956.63
2017-09-02T02:46:22.354Z,956.58
2017-09-02T02:47:22.371Z,956.62
2017-09-02T02:48:22.390Z,956.62
2017-09-02T02:49:22.409Z,956.63
2017-09-02T02:50:22.433Z,956.65
2017-09-02T02:51:22.451Z,956.63
2017-09-02T02:52:22.487Z,956.64
2017-09-02T02:53:22.493Z,956.67
2017-09-02T02:54:22.518Z,956.65
2017-09-02T02:55:22.535Z,956.63
2017-09-02T02:56:22.556Z,956.66
2017-09-02T02:57:22.577Z,956.69
2017-09-02T02:58:22.650Z,956.68
2017-09-02T02:59:22.619Z,956.62
2017-09-02T03:00:22.639Z,956.69
2017-09-02T03:01:22.660Z,956.65
2017-09-02T03:02:22.684Z,956.62
2017-09-02T03:03:22.752Z,956.6
2017-09-02T03:04:22.723Z,956.58
2017-09-02T03:05:22.750Z,956.57
2017-09-02T03:06:22.768Z,956.57
2017-09-02T03:07:22.786Z,956.58
2017-09-02T03:08:22.805Z,956.52
2017-09-02T03:09:22.834Z,956.53
2017-09-02T03:10:22.847Z,956.61
2017-09-02T03:11:22.871Z,956.6
2017-09-02T03:12:22.890Z,956.57
2017-09-02T03:13:22.917Z,956.57
2017-09-02T03:14:22.931Z,956.57
2017-09-02T03:15:22.951Z,956.54
2017-09-02T03:16:22.971Z,956.52
2017-09-02T03:17:22.999Z,956.53
2017-09-02T03:18:23.014Z,956.52
2017-09-02T03:19:23.033Z,956.48
2017-09-02T03:20:23.059Z,956.55
2017-09-02T03:21:23.083Z,956.48
2017-09-02T03:22:23.098Z,956.49
2017-09-02T03:23:23.121Z,956.43
2017-09-02T03:24:23.140Z,956.46
2017-09-02T03:25:23.160Z,956.4
2017-09-02T03:26:23.181Z,956.4
2017-09-02T03:27:23.203Z,956.37
2017-09-02T03:28:23.225Z,956.36
2017-09-02T03:29:23.242Z,956.36
2017-09-02T03:30:23.264Z,956.32
2017-09-02T03:31:23.285Z,956.29
2017-09-02T03:32:23.306Z,956.31
2017-09-02T03:33:23.325Z,956.25
2017-09-02T03:34:23.351Z,956.26
2017-09-02T03:35:23.369Z,956.25
2017-09-02T03:36:23.392Z,956.24
2017-09-02T03:37:23.461Z,956.23
2017-09-02T03:38:23.431Z,956.21
2017-09-02T03:39:23.449Z,956.23
2017-09-02T03:40:23.500Z,956.24
2017-09-02T03:41:23.494Z,956.26
2017-09-02T03:42:23.513Z,956.26
2017-09-02T03:43:23.535Z,956.27
2017-09-02T03:44:23.554Z,956.28
2017-09-02T03:45:23.575Z,956.28
2017-09-02T03:46:23.596Z,956.3
2017-09-02T03:47:23.618Z,956.28
2017-09-02T03:48:23.637Z,956.27
2017-09-02T03:49:23.664Z,956.3
2017-09-02T03:50:23.678Z,956.27
2017-09-02T03:51:23.702Z,956.33
2017-09-02T03:52:23.721Z,956.29
2017-09-02T03:53:23.740Z,956.33
2017-09-02T03:54:23.761Z,956.34
2017-09-02T03:55:23.784Z,956.32
2017-09-02T03:56:23.852Z,956.32
2017-09-02T03:57:23.821Z,956.34
2017-09-02T03:58:23.846Z,956.35
2017-09-02T03:59:23.870Z,956.37
2017-09-02T04:00:23.890Z,956.38
2017-09-02T04:01:23.904Z,956.42
2017-09-02T04:02:23.926Z,956.41
2017-09-02T04:03:23.946Z,956.38
2017-09-02T04:04:23.966Z,956.41
2017-09-02T04:05:23.987Z,956.43
2017-09-02T04:06:24.008Z,956.41
2017-09-02T04:07:24.029Z,956.4
2017-09-02T04:08:24.050Z,956.43
2017-09-02T04:09:24.069Z,956.47
2017-09-02T04:10:24.090Z,956.45
2017-09-02T04:11:24.262Z,956.45
2017-09-02T04:12:24.133Z,956.43
2017-09-02T04:13:24.151Z,956.4
2017-09-02T04:14:24.173Z,956.43
2017-09-02T04:15:24.193Z,956.45
2017-09-02T04:16:24.212Z,956.47
2017-09-02T04:17:24.234Z,956.45
2017-09-02T04:18:24.255Z,956.44
2017-09-02T04:19:24.276Z,956.46
2017-09-02T04:20:24.296Z,956.49
2017-09-02T04:21:24.317Z,956.47
2017-09-02T04:22:24.338Z,956.49
2017-09-02T04:23:24.356Z,956.47
2017-09-02T04:24:24.377Z,956.46
2017-09-02T04:25:24.406Z,956.48
2017-09-02T04:26:24.421Z,956.48
2017-09-02T04:27:24.439Z,956.46
2017-09-02T04:28:24.459Z,956.51
2017-09-02T04:29:24.480Z,956.5
2017-09-02T04:30:24.500Z,956.54
2017-09-02T04:31:24.523Z,956.48
2017-09-02T04:32:24.541Z,956.52
2017-09-02T04:33:24.566Z,956.5
2017-09-02T04:34:24.589Z,956.49
2017-09-02T04:35:24.604Z,956.55
2017-09-02T04:36:24.623Z,956.57
2017-09-02T04:37:24.643Z,956.53
2017-09-02T04:38:24.665Z,956.57
2017-09-02T04:39:24.683Z,956.59
2017-09-02T04:40:24.704Z,956.57
2017-09-02T04:41:24.733Z,956.56
2017-09-02T04:42:24.746Z,956.55
2017-09-02T04:43:24.765Z,956.56
2017-09-02T04:44:24.787Z,956.56
2017-09-02T04:45:24.805Z,956.58
2017-09-02T04:46:24.827Z,956.6
2017-09-02T04:47:24.853Z,956.58
2017-09-02T04:48:24.872Z,956.57
2017-09-02T04:49:24.889Z,956.62
2017-09-02T04:50:24.908Z,956.61
2017-09-02T04:51:24.930Z,956.62
2017-09-02T04:52:24.951Z,956.63
2017-09-02T04:53:24.972Z,956.6
2017-09-02T04:54:24.990Z,956.59
2017-09-02T04:55:25.011Z,956.65
2017-09-02T04:56:25.040Z,956.64
2017-09-02T04:57:25.052Z,956.64
2017-09-02T04:58:25.074Z,956.65
2017-09-02T04:59:25.095Z,956.64
2017-09-02T05:00:25.115Z,956.63
2017-09-02T05:01:25.139Z,956.66
2017-09-02T05:02:25.157Z,956.66
2017-09-02T05:03:25.177Z,956.67
2017-09-02T05:04:25.202Z,956.7
2017-09-02T05:05:25.219Z,956.65
2017-09-02T05:06:25.244Z,956.66
2017-09-02T05:07:25.260Z,956.66
2017-09-02T05:08:25.281Z,956.65
2017-09-02T05:09:25.302Z,956.64
2017-09-02T05:10:25.323Z,956.67
2017-09-02T05:11:25.355Z,956.63
2017-09-02T05:12:25.363Z,956.66
2017-09-02T05:13:25.384Z,956.69
2017-09-02T05:14:25.410Z,956.68
2017-09-02T05:15:25.426Z,956.66
2017-09-02T05:16:25.447Z,956.69
2017-09-02T05:17:25.470Z,956.68
2017-09-02T05:18:25.492Z,956.7
2017-09-02T05:19:25.507Z,956.71
2017-09-02T05:20:25.532Z,956.72
2017-09-02T05:21:25.600Z,956.71
2017-09-02T05:22:25.567Z,956.74
2017-09-02T05:23:25.589Z,956.75
2017-09-02T05:24:25.609Z,956.74
2017-09-02T05:25:25.629Z,956.75
2017-09-02T05:26:25.651Z,956.72
2017-09-02T05:27:25.669Z,956.76
2017-09-02T05:28:25.691Z,956.72
2017-09-02T05:29:25.709Z,956.71
2017-09-02T05:30:25.731Z,956.75
2017-09-02T05:31:25.754Z,956.72
2017-09-02T05:32:25.775Z,956.72
2017-09-02T05:33:25.791Z,956.73
2017-09-02T05:34:25.812Z,956.73
2017-09-02T05:35:25.840Z,956.75
2017-09-02T05:36:25.858Z,956.73
2017-09-02T05:37:25.873Z,956.74
2017-09-02T05:38:25.895Z,956.75
2017-09-02T05:39:25.966Z,956.75
2017-09-02T05:40:25.937Z,956.77
2017-09-02T05:41:25.962Z,956.7
2017-09-02T05:42:25.976Z,956.75
2017-09-02T05:43:25.996Z,956.72
2017-09-02T05:44:26.022Z,956.73
2017-09-02T05:45:26.036Z,956.73
2017-09-02T05:46:26.057Z,956.74
2017-09-02T05:47:26.083Z,956.71
2017-09-02T05:48:26.100Z,956.69
2017-09-02T05:49:26.143Z,956.74
2017-09-02T05:50:26.144Z,956.72
2017-09-02T05:51:26.163Z,956.7
2017-09-02T05:52:26.183Z,956.7
2017-09-02T05:53:26.208Z,956.73
2017-09-02T05:54:26.222Z,956.7
2017-09-02T05:55:26.241Z,956.74
2017-09-02T05:56:26.310Z,956.74
2017-09-02T05:57:26.281Z,956.73
2017-09-02T05:58:26.299Z,956.73
2017-09-02T05:59:26.320Z,956.74
2017-09-02T06:00:26.345Z,956.77
2017-09-02T06:01:26.363Z,956.78
2017-09-02T06:02:26.381Z,956.78
2017-09-02T06:03:26.401Z,956.8
2017-09-02T06:04:26.425Z,956.83
2017-09-02T06:05:26.448Z,956.8
2017-09-02T06:06:26.463Z,956.78
2017-09-02T06:07:26.482Z,956.78
2017-09-02T06:08:26.504Z,956.79
2017-09-02T06:09:26.522Z,956.79
2017-09-02T06:10:26.547Z,956.8
2017-09-02T06:11:26.612Z,956.84
2017-09-02T06:12:26.585Z,956.82
2017-09-02T06:13:26.607Z,956.84
2017-09-02T06:14:26.624Z,956.82
2017-09-02T06:15:26.649Z,956.84
2017-09-02T06:16:26.665Z,956.86
2017-09-02T06:17:26.684Z,956.86
2017-09-02T06:18:26.705Z,956.87
2017-09-02T06:19:26.726Z,956.88
2017-09-02T06:20:26.748Z,956.91
2017-09-02T06:21:26.769Z,956.91
2017-09-02T06:22:26.786Z,956.92
2017-09-02T06:23:26.807Z,956.92
2017-09-02T06:24:26.827Z,956.9
2017-09-02T06:25:26.850Z,956.91
2017-09-02T06:26:26.868Z,956.92
2017-09-02T06:27:26.888Z,956.93
2017-09-02T06:28:26.909Z,956.92
2017-09-02T06:29:26.980Z,956.93
2017-09-02T06:30:26.952Z,956.92
2017-09-02T06:31:26.970Z,956.93
2017-09-02T06:32:26.990Z,956.93
2017-09-02T06:33:27.016Z,956.99
2017-09-02T06:34:27.049Z,956.89
2017-09-02T06:35:27.052Z,956.89
2017-09-02T06:36:27.072Z,956.92
2017-09-02T06:37:27.092Z,956.91
2017-09-02T06:38:27.117Z,956.92
2017-09-02T06:39:27.131Z,956.9
2017-09-02T06:40:27.152Z,956.92
2017-09-02T06:41:27.182Z,956.95
2017-09-02T06:42:27.220Z,956.94
2017-09-02T06:43:27.218Z,956.95
2017-09-02T06:44:27.284Z,956.99
2017-09-02T06:45:27.257Z,956.96
2017-09-02T06:46:27.278Z,956.98
2017-09-02T06:47:27.299Z,956.98
2017-09-02T06:48:27.317Z,957
2017-09-02T06:49:27.339Z,956.99
2017-09-02T06:50:27.362Z,957.01
2017-09-02T06:51:27.382Z,956.98
2017-09-02T06:52:27.402Z,957.04
2017-09-02T06:53:27.422Z,957.04
2017-09-02T06:54:27.454Z,957.07
2017-09-02T06:55:27.462Z,957.07
2017-09-02T06:56:27.480Z,957.07
2017-09-02T06:57:27.505Z,957.1
2017-09-02T06:58:27.526Z,957.07
2017-09-02T06:59:27.554Z,957.14
2017-09-02T07:00:27.564Z,957.15
2017-09-02T07:01:27.593Z,957.17
2017-09-02T07:02:27.606Z,957.19
2017-09-02T07:03:27.628Z,957.18
2017-09-02T07:04:27.658Z,957.17
2017-09-02T07:05:27.671Z,957.21
2017-09-02T07:06:27.689Z,957.2
2017-09-02T07:07:27.720Z,957.2
2017-09-02T07:08:27.759Z,957.2
2017-09-02T07:09:27.774Z,957.21
2017-09-02T07:10:27.776Z,957.22
2017-09-02T07:11:27.819Z,957.24
2017-09-02T07:12:27.813Z,957.25
2017-09-02T07:13:27.839Z,957.2
2017-09-02T07:14:27.857Z,957.23
2017-09-02T07:15:27.877Z,957.21
2017-09-02T07:16:27.898Z,957.24
2017-09-02T07:17:27.972Z,957.21
2017-09-02T07:18:27.942Z,957.22
2017-09-02T07:19:27.961Z,957.26
2017-09-02T07:20:28.001Z,957.25
2017-09-02T07:21:28.003Z,957.24
2017-09-02T07:22:28.026Z,957.25
2017-09-02T07:23:28.050Z,957.24
2017-09-02T07:24:28.065Z,957.26
2017-09-02T07:25:28.094Z,957.27
2017-09-02T07:26:28.106Z,957.28
2017-09-02T07:27:28.135Z,957.29
2017-09-02T07:28:28.149Z,957.29
2017-09-02T07:29:28.169Z,957.33
2017-09-02T07:30:28.191Z,957.29
2017-09-02T07:31:28.213Z,957.3
2017-09-02T07:32:28.233Z,957.28
2017-09-02T07:33:28.261Z,957.33
2017-09-02T07:34:28.277Z,957.34
2017-09-02T07:35:28.302Z,957.33
2017-09-02T07:36:28.368Z,957.35
2017-09-02T07:37:28.337Z,957.33
2017-09-02T07:38:28.359Z,957.34
2017-09-02T07:39:28.380Z,957.31
2017-09-02T07:40:28.408Z,957.3
2017-09-02T07:41:28.423Z,957.34
2017-09-02T07:42:28.447Z,957.34
2017-09-02T07:43:28.462Z,957.36
2017-09-02T07:44:28.483Z,957.38
2017-09-02T07:45:28.505Z,957.42
2017-09-02T07:46:28.528Z,957.41
2017-09-02T07:47:28.546Z,957.44
2017-09-02T07:48:28.565Z,957.44
2017-09-02T07:49:28.591Z,957.46
2017-09-02T07:50:28.610Z,957.48
2017-09-02T07:51:28.842Z,957.44
2017-09-02T07:52:28.652Z,957.46
2017-09-02T07:53:28.675Z,957.47
2017-09-02T07:54:28.695Z,957.45
2017-09-02T07:55:28.716Z,957.48
2017-09-02T07:56:28.737Z,957.48
2017-09-02T07:57:28.758Z,957.52
2017-09-02T07:58:28.795Z,957.47
2017-09-02T07:59:28.798Z,957.47
2017-09-02T08:00:28.820Z,957.52
2017-09-02T08:01:28.845Z,957.49
2017-09-02T08:02:28.862Z,957.52
2017-09-02T08:03:28.887Z,957.52
2017-09-02T08:04:28.904Z,957.5
2017-09-02T08:05:28.925Z,957.56
2017-09-02T08:06:28.947Z,957.51
2017-09-02T08:07:28.967Z,957.52
2017-09-02T08:08:28.988Z,957.51
2017-09-02T08:09:29.016Z,957.53
2017-09-02T08:10:29.084Z,957.54
2017-09-02T08:11:29.050Z,957.55
2017-09-02T08:12:29.071Z,957.54
2017-09-02T08:13:29.094Z,957.54
2017-09-02T08:14:29.117Z,957.5
2017-09-02T08:15:29.140Z,957.48
2017-09-02T08:16:29.160Z,957.51
2017-09-02T08:17:29.181Z,957.49
2017-09-02T08:18:29.201Z,957.5
2017-09-02T08:19:29.233Z,957.53
2017-09-02T08:20:29.245Z,957.51
2017-09-02T08:21:29.266Z,957.51
2017-09-02T08:22:29.284Z,957.49
2017-09-02T08:23:29.307Z,957.51
2017-09-02T08:24:29.327Z,957.51
2017-09-02T08:25:29.349Z,957.57
2017-09-02T08:26:29.375Z,957.55
2017-09-02T08:27:29.391Z,957.56
2017-09-02T08:28:29.412Z,957.54
2017-09-02T08:29:29.484Z,957.55
2017-09-02T08:30:29.456Z,957.59
2017-09-02T08:31:29.477Z,957.54
2017-09-02T08:32:29.496Z,957.54
2017-09-02T08:33:29.518Z,957.55
2017-09-02T08:34:29.539Z,957.52
2017-09-02T08:35:29.733Z,957.55
2017-09-02T08:36:29.580Z,957.58
2017-09-02T08:37:29.607Z,957.6
2017-09-02T08:38:29.814Z,957.57
2017-09-02T08:39:29.642Z,957.56
2017-09-02T08:40:29.777Z,957.57
2017-09-02T08:41:29.706Z,957.58
2017-09-02T08:42:29.707Z,957.57
2017-09-02T08:43:29.729Z,957.59
2017-09-02T08:44:29.753Z,957.56
2017-09-02T08:45:29.821Z,957.58
2017-09-02T08:46:29.791Z,957.58
2017-09-02T08:47:29.816Z,957.61
2017-09-02T08:48:29.835Z,957.61
2017-09-02T08:49:29.854Z,957.63
2017-09-02T08:50:29.874Z,957.59
2017-09-02T08:51:29.900Z,957.59
2017-09-02T08:52:29.918Z,957.6
2017-09-02T08:53:29.936Z,957.56
2017-09-02T08:54:29.961Z,957.55
2017-09-02T08:55:29.989Z,957.58
2017-09-02T08:56:30.003Z,957.54
2017-09-02T08:57:30.024Z,957.56
2017-09-02T08:58:30.047Z,957.55
2017-09-02T08:59:30.083Z,957.52
2017-09-02T09:00:30.087Z,957.49
2017-09-02T09:01:33.378Z,957.5
2017-09-02T09:02:30.287Z,957.5
2017-09-02T09:03:30.152Z,957.52
2017-09-02T09:04:30.192Z,957.52
2017-09-02T09:05:30.253Z,957.55
2017-09-02T09:06:30.224Z,957.57
2017-09-02T09:07:30.262Z,957.57
2017-09-02T09:08:30.307Z,957.6
2017-09-02T09:09:30.658Z,957.6
2017-09-02T09:10:30.339Z,957.59
2017-09-02T09:11:30.321Z,957.6
2017-09-02T09:12:30.341Z,957.6
2017-09-02T09:13:30.366Z,957.6
2017-09-02T09:14:30.389Z,957.63
2017-09-02T09:15:30.412Z,957.62
2017-09-02T09:16:30.429Z,957.64
2017-09-02T09:17:30.449Z,957.65
2017-09-02T09:18:30.484Z,957.67
2017-09-02T09:19:30.491Z,957.64
2017-09-02T09:20:30.544Z,957.66
2017-09-02T09:21:30.595Z,957.68
2017-09-02T09:22:30.558Z,957.66
2017-09-02T09:23:30.574Z,957.7
2017-09-02T09:24:30.598Z,957.72
2017-09-02T09:25:30.620Z,957.72
2017-09-02T09:26:30.642Z,957.74
2017-09-02T09:27:30.664Z,957.72
2017-09-02T09:28:30.689Z,957.74
2017-09-02T09:29:30.708Z,957.72
2017-09-02T09:30:30.727Z,957.72
2017-09-02T09:31:30.747Z,957.71
2017-09-02T09:32:30.777Z,957.68
2017-09-02T09:33:30.792Z,957.71
2017-09-02T09:34:30.812Z,957.66
2017-09-02T09:35:30.837Z,957.63
2017-09-02T09:36:30.912Z,957.68
2017-09-02T09:37:30.879Z,957.67
2017-09-02T09:38:30.903Z,957.68
2017-09-02T09:39:30.924Z,957.66
2017-09-02T09:40:30.952Z,957.7
2017-09-02T09:41:30.971Z,957.71
2017-09-02T09:42:30.999Z,957.69
2017-09-02T09:43:31.019Z,957.71
2017-09-02T09:44:31.037Z,957.73
2017-09-02T09:45:31.057Z,957.69
2017-09-02T09:46:31.081Z,957.68
2017-09-02T09:47:31.101Z,957.72
2017-09-02T09:48:31.123Z,957.68
2017-09-02T09:49:31.148Z,957.67
2017-09-02T09:50:31.170Z,957.68
2017-09-02T09:51:31.191Z,957.71
2017-09-02T09:52:31.218Z,957.69
2017-09-02T09:53:31.237Z,957.7
2017-09-02T09:54:31.268Z,957.66
2017-09-02T09:55:31.291Z,957.68
2017-09-02T09:56:31.308Z,957.7
2017-09-02T09:57:31.331Z,957.65
2017-09-02T09:58:31.354Z,957.66
2017-09-02T09:59:31.377Z,957.68
2017-09-02T10:00:31.399Z,957.67
2017-09-02T10:01:31.424Z,957.64
2017-09-02T10:02:31.447Z,957.67
2017-09-02T10:03:31.475Z,957.72
2017-09-02T10:04:31.497Z,957.7
2017-09-02T10:05:31.517Z,957.67
2017-09-02T10:06:31.542Z,957.72
2017-09-02T10:07:31.575Z,957.73
2017-09-02T10:08:31.595Z,957.74
2017-09-02T10:09:31.614Z,957.77
2017-09-02T10:10:31.687Z,957.78
2017-09-02T10:11:31.663Z,957.84
2017-09-02T10:12:31.685Z,957.86
2017-09-02T10:13:31.710Z,957.89
2017-09-02T10:14:31.734Z,957.86
2017-09-02T10:15:31.759Z,957.89
2017-09-02T10:16:31.781Z,957.9
2017-09-02T10:17:31.807Z,957.92
2017-09-02T10:18:31.832Z,957.9
2017-09-02T10:19:31.858Z,957.89
2017-09-02T10:20:31.887Z,957.88
2017-09-02T10:21:31.909Z,957.83
2017-09-02T10:22:31.931Z,957.83
2017-09-02T10:23:31.956Z,957.83
2017-09-02T10:24:31.980Z,957.89
2017-09-02T10:25:32.002Z,957.8
2017-09-02T10:26:32.078Z,957.85
2017-09-02T10:27:32.054Z,957.85
2017-09-02T10:28:32.077Z,957.86
2017-09-02T10:29:32.103Z,957.84
2017-09-02T10:30:32.134Z,957.83
2017-09-02T10:31:32.152Z,957.85
2017-09-02T10:32:32.180Z,957.83
2017-09-02T10:33:32.199Z,957.82
2017-09-02T10:34:32.224Z,957.81
2017-09-02T10:35:32.249Z,957.81
2017-09-02T10:36:32.275Z,957.77
2017-09-02T10:37:32.301Z,957.8
2017-09-02T10:38:32.331Z,957.78
2017-09-02T10:39:32.345Z,957.74
2017-09-02T10:40:32.378Z,957.77
2017-09-02T10:41:32.394Z,957.8
2017-09-02T10:42:32.420Z,957.8
2017-09-02T10:43:32.445Z,957.8
2017-09-02T10:44:32.467Z,957.85
2017-09-02T10:45:32.493Z,957.85
2017-09-02T10:46:32.517Z,957.86
2017-09-02T10:47:32.545Z,957.86
2017-09-02T10:48:32.569Z,957.87
2017-09-02T10:49:32.596Z,957.88
2017-09-02T10:50:32.615Z,957.88
2017-09-02T10:51:32.641Z,957.89
2017-09-02T10:52:32.666Z,957.91
2017-09-02T10:53:32.686Z,957.91
2017-09-02T10:54:32.715Z,957.9
2017-09-02T10:55:32.751Z,957.87
2017-09-02T10:56:32.762Z,957.9
2017-09-02T10:57:32.785Z,957.86
2017-09-02T10:58:32.811Z,957.81
2017-09-02T10:59:32.833Z,957.82
2017-09-02T11:00:32.907Z,957.79
2017-09-02T11:01:32.881Z,957.83
2017-09-02T11:02:32.905Z,957.82
2017-09-02T11:03:32.931Z,957.85
2017-09-02T11:04:32.957Z,957.83
2017-09-02T11:05:32.981Z,957.8
2017-09-02T11:06:33.007Z,957.78
2017-09-02T11:07:33.030Z,957.79
2017-09-02T11:08:33.062Z,957.82
2017-09-02T11:09:33.085Z,957.77
2017-09-02T11:10:33.106Z,957.8
2017-09-02T11:11:33.130Z,957.82
2017-09-02T11:12:33.156Z,957.82
2017-09-02T11:13:33.184Z,957.8
2017-09-02T11:14:33.210Z,957.76
2017-09-02T11:15:33.238Z,957.84
2017-09-02T11:16:33.255Z,957.79
2017-09-02T11:17:33.280Z,957.78
2017-09-02T11:18:33.306Z,957.77
2017-09-02T11:19:33.387Z,957.8
2017-09-02T11:20:33.355Z,957.77
2017-09-02T11:21:33.380Z,957.77
2017-09-02T11:22:33.407Z,957.77
2017-09-02T11:23:33.432Z,957.77
2017-09-02T11:24:33.460Z,957.73
2017-09-02T11:25:33.480Z,957.68
2017-09-02T11:26:33.512Z,957.77
2017-09-02T11:27:33.535Z,957.78
2017-09-02T11:28:33.555Z,957.77
2017-09-02T11:29:33.581Z,957.74
2017-09-02T11:30:33.604Z,957.73
2017-09-02T11:31:33.631Z,957.71
2017-09-02T11:32:33.654Z,957.71
2017-09-02T11:33:33.683Z,957.71
2017-09-02T11:34:33.714Z,957.69
2017-09-02T11:35:33.731Z,957.7
2017-09-02T11:36:33.757Z,957.73
2017-09-02T11:37:33.831Z,957.74
2017-09-02T11:38:33.805Z,957.74
2017-09-02T11:39:33.832Z,957.75
2017-09-02T11:40:33.856Z,957.78
2017-09-02T11:41:33.879Z,957.74
2017-09-02T11:42:33.908Z,957.73
2017-09-02T11:43:33.933Z,957.76
2017-09-02T11:44:33.954Z,957.78
2017-09-02T11:45:33.979Z,957.76
2017-09-02T11:46:34.000Z,957.73
2017-09-02T11:47:34.029Z,957.78
2017-09-02T11:48:34.051Z,957.79
2017-09-02T11:49:34.077Z,957.76
2017-09-02T11:50:34.105Z,957.76
2017-09-02T11:51:34.123Z,957.77
2017-09-02T11:52:34.201Z,957.77
2017-09-02T11:53:34.172Z,957.74
2017-09-02T11:54:34.200Z,957.78
2017-09-02T11:55:34.222Z,957.74
2017-09-02T11:56:34.249Z,957.79
2017-09-02T11:57:34.277Z,957.77
2017-09-02T11:58:34.298Z,957.81
2017-09-02T11:59:34.321Z,957.81
2017-09-02T12:00:34.346Z,957.8
2017-09-02T12:01:34.371Z,957.8
2017-09-02T12:02:34.396Z,957.75
2017-09-02T12:03:34.420Z,957.75
2017-09-02T12:04:34.449Z,957.77
2017-09-02T12:05:34.469Z,957.74
2017-09-02T12:06:34.496Z,957.77
2017-09-02T12:07:34.517Z,957.78
2017-09-02T12:08:34.544Z,957.78
2017-09-02T12:09:34.569Z,957.79
2017-09-02T12:10:34.598Z,957.79
2017-09-02T12:11:34.667Z,957.72
2017-09-02T12:12:34.643Z,957.77
2017-09-02T12:13:34.670Z,957.74
2017-09-02T12:14:34.692Z,957.74
2017-09-02T12:15:34.717Z,957.75
2017-09-02T12:16:34.742Z,957.76
2017-09-02T12:17:34.766Z,957.7
2017-09-02T12:18:34.794Z,957.67
2017-09-02T12:19:34.818Z,957.69
2017-09-02T12:20:34.846Z,957.69
2017-09-02T12:21:34.868Z,957.73
2017-09-02T12:22:34.891Z,957.67
2017-09-02T12:23:34.922Z,957.68
2017-09-02T12:24:34.942Z,957.64
2017-09-02T12:25:34.975Z,957.66
2017-09-02T12:26:34.996Z,957.64
2017-09-02T12:27:35.017Z,957.62
2017-09-02T12:28:35.091Z,957.64
2017-09-02T12:29:35.068Z,957.57
2017-09-02T12:30:35.093Z,957.6
2017-09-02T12:31:35.121Z,957.57